Time;durP1;ratioP1;P1;durP2;ratioP2;P2;SDS_P1;SDS_P2;PMS_P1;PMS_P2;Temp;Humidity;BMP_temperature;BMP_pressure;BME280_temperature;BME280_humidity;BME280_pressure;Samples;Min_cycle;Max_cycle;Signal;HPM_P1;HPM_P2
2022/01/30 00:01:48;;;;;;;0.30;0.30;;;5.60;99.90;;;;;;5036428;28;20628;-70
2022/01/30 00:04:14;;;;;;;0.33;0.33;;;5.60;99.90;;;;;;5034623;28;20325;-69
2022/01/30 00:06:40;;;;;;;0.30;0.30;;;5.70;99.90;;;;;;5035556;28;20171;-70
2022/01/30 00:09:10;;;;;;;0.30;0.30;;;5.70;99.90;;;;;;5034910;28;20195;-70
2022/01/30 00:11:38;;;;;;;0.35;0.35;;;5.60;99.90;;;;;;5036179;28;20185;-70
2022/01/30 00:14:06;;;;;;;0.40;0.40;;;5.70;99.90;;;;;;5035060;28;20256;-70
2022/01/30 00:16:35;;;;;;;0.40;0.40;;;5.70;99.90;;;;;;5036102;28;20167;-69
2022/01/30 00:19:11;;;;;;;0.40;0.40;;;5.70;99.90;;;;;;5035862;28;20191;-69
2022/01/30 00:21:42;;;;;;;0.30;0.30;;;5.80;99.90;;;;;;5036370;28;20171;-70
2022/01/30 00:24:13;;;;;;;0.40;0.40;;;5.80;99.90;;;;;;5035924;28;20236;-70
2022/01/30 00:26:40;;;;;;;0.30;0.30;;;5.90;99.90;;;;;;5036165;28;20571;-70
2022/01/30 00:29:07;;;;;;;0.32;0.32;;;6.00;99.90;;;;;;5035777;28;20167;-70
2022/01/30 00:31:34;;;;;;;0.40;0.40;;;6.00;99.90;;;;;;5035829;28;20273;-69
2022/01/30 00:34:01;;;;;;;0.30;0.30;;;5.90;99.90;;;;;;5035508;28;20293;-69
2022/01/30 00:36:29;;;;;;;0.30;0.30;;;6.00;99.90;;;;;;5035801;28;20193;-70
2022/01/30 00:38:55;;;;;;;0.30;0.30;;;6.00;99.90;;;;;;5035794;28;20171;-69
2022/01/30 00:41:21;;;;;;;0.30;0.30;;;6.00;99.90;;;;;;5035824;28;20600;-70
2022/01/30 00:43:46;;;;;;;0.30;0.30;;;6.10;99.90;;;;;;5035716;28;20241;-70
2022/01/30 00:46:12;;;;;;;0.40;0.40;;;6.00;99.80;;;;;;5036014;28;20276;-70
2022/01/30 00:48:38;;;;;;;0.40;0.40;;;5.90;99.70;;;;;;5035322;28;20173;-70
2022/01/30 00:51:04;;;;;;;0.30;0.30;;;6.00;99.80;;;;;;5035577;28;20170;-69
2022/01/30 00:53:29;;;;;;;0.30;0.30;;;6.00;99.70;;;;;;5035387;28;20549;-69
2022/01/30 00:55:55;;;;;;;0.30;0.30;;;5.90;99.50;;;;;;5035454;28;20175;-70
2022/01/30 00:58:20;;;;;;;0.30;0.30;;;5.90;99.90;;;;;;5035328;28;20171;-69
2022/01/30 01:00:46;;;;;;;0.30;0.30;;;5.80;99.90;;;;;;5035540;28;20167;-70
2022/01/30 01:03:12;;;;;;;0.30;0.30;;;5.90;99.90;;;;;;5035151;28;20190;-70
2022/01/30 01:05:38;;;;;;;0.30;0.30;;;5.80;99.90;;;;;;5035351;28;20170;-70
2022/01/30 01:08:28;;;;;;;0.30;0.30;;;5.80;99.90;;;;;;5035296;28;20170;-70
2022/01/30 01:20:58;;;;;;;0.30;0.30;;;6.00;99.90;;;;;;5018654;28;20714;-70
2022/01/30 01:24:42;;;;;;;0.40;0.40;;;6.00;99.90;;;;;;5034845;28;20201;-69
2022/01/30 01:27:08;;;;;;;0.40;0.40;;;6.00;99.90;;;;;;5034938;28;20179;-70
2022/01/30 01:29:34;;;;;;;0.30;0.30;;;6.00;99.90;;;;;;5034558;28;20167;-69
2022/01/30 01:31:59;;;;;;;0.40;0.40;;;6.00;99.90;;;;;;5035144;28;20182;-70
2022/01/30 01:36:53;;;;;;;0.38;0.38;;;6.10;99.90;;;;;;5034651;28;20209;-70
2022/01/30 01:39:19;;;;;;;0.40;0.40;;;6.10;99.90;;;;;;5034406;28;20633;-70
2022/01/30 01:41:45;;;;;;;0.30;0.30;;;6.10;99.90;;;;;;5034695;28;20179;-70
2022/01/30 01:44:18;;;;;;;0.30;0.30;;;6.20;99.90;;;;;;5034606;28;20203;-70
2022/01/30 01:46:46;;;;;;;0.40;0.40;;;6.10;99.90;;;;;;5034886;28;20171;-69
2022/01/30 01:49:18;;;;;;;0.40;0.40;;;6.30;99.90;;;;;;5034207;28;20198;-69
2022/01/30 01:51:49;;;;;;;0.30;0.30;;;6.30;99.90;;;;;;5034557;28;20171;-69
2022/01/30 01:54:15;;;;;;;0.40;0.40;;;6.20;99.90;;;;;;5034158;28;20199;-69
2022/01/30 01:56:40;;;;;;;0.30;0.30;;;6.20;99.90;;;;;;5034179;28;20629;-69
2022/01/30 01:59:06;;;;;;;0.30;0.30;;;6.10;99.90;;;;;;5034205;28;20493;-70
2022/01/30 02:01:32;;;;;;;0.40;0.40;;;5.90;99.90;;;;;;5034556;28;20182;-70
2022/01/30 02:03:57;;;;;;;0.30;0.30;;;5.90;99.90;;;;;;5034047;28;20214;-70
2022/01/30 02:06:25;;;;;;;0.30;0.30;;;5.90;99.90;;;;;;5033800;28;20182;-70
2022/01/30 02:09:04;;;;;;;0.30;0.30;;;5.90;99.90;;;;;;5034000;28;20648;-70
2022/01/30 02:14:22;;;;;;;0.37;0.37;;;5.80;99.90;;;;;;5034098;28;20209;-70
2022/01/30 02:27:36;;;;;;;0.30;0.30;;;5.70;99.90;;;;;;5033899;28;20212;-69
2022/01/30 02:30:13;;;;;;;0.30;0.30;;;5.70;99.90;;;;;;5033456;28;20177;-69
2022/01/30 02:32:39;;;;;;;0.32;0.32;;;5.60;99.90;;;;;;5033804;28;20170;-69
2022/01/30 02:35:05;;;;;;;0.40;0.40;;;5.70;99.90;;;;;;5032021;28;20230;-69
2022/01/30 02:37:31;;;;;;;0.30;0.30;;;5.70;99.90;;;;;;5033613;28;20695;-70
2022/01/30 02:39:56;;;;;;;0.40;0.40;;;5.80;99.90;;;;;;5032293;28;20174;-69
2022/01/30 02:42:26;;;;;;;0.33;0.33;;;5.90;99.90;;;;;;5033550;28;20700;-70
2022/01/30 02:44:58;;;;;;;0.30;0.30;;;5.90;99.90;;;;;;5033659;28;20190;-70
2022/01/30 02:47:41;;;;;;;0.40;0.40;;;5.90;99.90;;;;;;5032328;28;20704;-70
2022/01/30 02:52:40;;;;;;;0.30;0.30;;;5.70;99.90;;;;;;5033549;28;20217;-70
2022/01/30 02:55:08;;;;;;;0.30;0.30;;;5.80;99.90;;;;;;5033276;28;20191;-70
2022/01/30 02:57:33;;;;;;;0.30;0.30;;;5.90;99.90;;;;;;5033425;28;20524;-69
2022/01/30 02:59:59;;;;;;;0.30;0.30;;;6.00;99.90;;;;;;5033271;28;20166;-69
2022/01/30 03:02:25;;;;;;;0.30;0.30;;;6.00;99.90;;;;;;5033583;28;20167;-70
2022/01/30 03:04:50;;;;;;;0.40;0.40;;;6.00;99.90;;;;;;5033266;28;20187;-69
2022/01/30 03:07:16;;;;;;;0.30;0.30;;;6.00;99.90;;;;;;5033443;28;20197;-69
2022/01/30 03:09:42;;;;;;;0.37;0.37;;;6.00;99.90;;;;;;5033176;28;20174;-70
2022/01/30 03:12:08;;;;;;;0.40;0.40;;;6.00;99.90;;;;;;5033264;28;20166;-70
2022/01/30 03:14:33;;;;;;;0.40;0.40;;;6.00;99.90;;;;;;5033060;28;20199;-70
2022/01/30 03:17:00;;;;;;;0.40;0.40;;;5.90;99.90;;;;;;5033292;28;20511;-69
2022/01/30 03:19:26;;;;;;;0.40;0.40;;;6.00;99.90;;;;;;5035628;28;20169;-70
2022/01/30 03:21:51;;;;;;;0.40;0.40;;;6.00;99.90;;;;;;5037323;28;20167;-69
2022/01/30 03:24:17;;;;;;;0.40;0.40;;;6.00;99.90;;;;;;5036990;28;20459;-69
2022/01/30 03:26:43;;;;;;;0.30;0.30;;;6.00;99.90;;;;;;5037218;28;20409;-69
2022/01/30 03:29:09;;;;;;;0.30;0.30;;;6.10;99.90;;;;;;5037063;28;20258;-70
2022/01/30 03:31:37;;;;;;;0.40;0.40;;;6.10;99.80;;;;;;5037225;28;20405;-69
2022/01/30 03:34:04;;;;;;;0.30;0.30;;;6.00;99.70;;;;;;5036682;28;20606;-70
2022/01/30 03:36:30;;;;;;;0.32;0.32;;;6.00;99.50;;;;;;5036797;28;20182;-69
2022/01/30 03:38:55;;;;;;;0.30;0.30;;;6.00;99.30;;;;;;5036801;28;20179;-70
2022/01/30 03:41:21;;;;;;;0.40;0.40;;;6.00;99.30;;;;;;5037185;28;20479;-70
2022/01/30 03:43:47;;;;;;;0.30;0.30;;;5.90;99.10;;;;;;5036978;28;20195;-69
2022/01/30 03:46:12;;;;;;;0.40;0.40;;;5.90;99.00;;;;;;5036804;28;20254;-70
2022/01/30 03:48:38;;;;;;;0.40;0.40;;;5.80;98.90;;;;;;5036581;28;20667;-70
2022/01/30 03:51:03;;;;;;;0.40;0.40;;;5.80;99.20;;;;;;5036770;28;20250;-70
2022/01/30 03:53:31;;;;;;;0.30;0.30;;;5.70;99.30;;;;;;5037114;28;20244;-69
2022/01/30 03:55:57;;;;;;;0.30;0.30;;;5.70;99.60;;;;;;5036565;28;20532;-69
2022/01/30 03:58:22;;;;;;;0.40;0.40;;;5.80;99.70;;;;;;5036304;28;20171;-69
2022/01/30 04:00:48;;;;;;;0.40;0.40;;;5.70;99.60;;;;;;5036556;28;20405;-69
2022/01/30 04:03:14;;;;;;;0.40;0.40;;;5.70;99.40;;;;;;5036447;28;20290;-69
2022/01/30 04:05:40;;;;;;;0.30;0.30;;;5.50;99.40;;;;;;5037023;28;20186;-69
2022/01/30 04:08:06;;;;;;;0.40;0.40;;;5.50;99.90;;;;;;5036514;28;20179;-69
2022/01/30 04:10:32;;;;;;;0.33;0.33;;;5.30;99.90;;;;;;5036081;28;20414;-70
2022/01/30 04:12:58;;;;;;;0.30;0.30;;;5.20;99.90;;;;;;5036298;28;20428;-69
2022/01/30 04:15:24;;;;;;;0.40;0.40;;;5.40;99.90;;;;;;5036161;28;20598;-69
2022/01/30 04:17:50;;;;;;;0.30;0.30;;;5.50;99.90;;;;;;5036205;28;20167;-70
2022/01/30 04:20:16;;;;;;;0.40;0.40;;;5.60;99.90;;;;;;5035949;28;20175;-69
2022/01/30 04:22:42;;;;;;;0.50;0.50;;;4.90;99.90;;;;;;5036630;28;20167;-69
2022/01/30 04:25:07;;;;;;;0.33;0.33;;;5.70;99.90;;;;;;5036014;28;20412;-70
2022/01/30 04:27:33;;;;;;;0.40;0.40;;;5.60;99.90;;;;;;5036019;28;20167;-70
2022/01/30 04:29:59;;;;;;;0.40;0.40;;;5.60;99.90;;;;;;5035513;28;20171;-69
2022/01/30 04:32:26;;;;;;;0.40;0.40;;;5.60;99.90;;;;;;5036029;28;20753;-69
2022/01/30 04:34:57;;;;;;;0.40;0.40;;;5.60;99.90;;;;;;5035565;28;20217;-69
2022/01/30 04:59:17;;;;;;;0.30;0.30;;;5.50;99.90;;;;;;5035479;28;20622;-69
2022/01/30 05:07:27;;;;;;;0.30;0.30;;;5.40;99.90;;;;;;5035329;28;20220;-69
2022/01/30 05:09:42;;;;;;;0.38;0.38;;;5.20;99.90;;;;;;5034816;28;20187;-69
2022/01/30 05:12:09;;;;;;;0.30;0.30;;;5.10;99.90;;;;;;5035305;28;20632;-69
2022/01/30 05:14:37;;;;;;;0.30;0.30;;;5.10;99.90;;;;;;5035155;28;20202;-69
2022/01/30 05:17:04;;;;;;;0.40;0.40;;;5.20;99.90;;;;;;5035043;28;20163;-70
2022/01/30 05:19:30;;;;;;;0.35;0.35;;;5.20;99.90;;;;;;5035080;28;20193;-69
2022/01/30 05:21:56;;;;;;;0.40;0.40;;;5.30;99.90;;;;;;5034973;28;20163;-69
2022/01/30 05:24:22;;;;;;;0.30;0.30;;;5.40;99.90;;;;;;5034858;28;20194;-70
2022/01/30 05:26:49;;;;;;;0.40;0.40;;;5.60;99.90;;;;;;5033675;28;20175;-69
2022/01/30 05:29:15;;;;;;;0.30;0.30;;;5.60;99.90;;;;;;5034682;28;20194;-69
2022/01/30 05:31:42;;;;;;;0.30;0.30;;;5.30;99.90;;;;;;5034949;28;20166;-69
2022/01/30 05:34:09;;;;;;;0.40;0.40;;;5.20;99.90;;;;;;5034483;28;20218;-70
2022/01/30 05:36:38;;;;;;;0.30;0.30;;;5.10;99.90;;;;;;5034576;28;20312;-70
2022/01/30 05:39:04;;;;;;;0.40;0.40;;;5.10;99.90;;;;;;5034374;28;20201;-70
2022/01/30 05:41:32;;;;;;;0.40;0.40;;;5.20;99.90;;;;;;5033979;28;20166;-69
2022/01/30 05:44:07;;;;;;;0.30;0.30;;;5.40;99.90;;;;;;5034428;28;20194;-69
2022/01/30 05:46:41;;;;;;;0.30;0.30;;;5.50;99.90;;;;;;5034741;28;20185;-70
2022/01/30 05:49:07;;;;;;;0.40;0.40;;;5.60;99.90;;;;;;5034514;28;20170;-69
2022/01/30 05:51:32;;;;;;;0.40;0.40;;;5.60;99.90;;;;;;5034324;28;20552;-69
2022/01/30 05:53:58;;;;;;;0.30;0.30;;;6.00;99.90;;;;;;5034213;28;20512;-69
2022/01/30 05:56:24;;;;;;;0.30;0.30;;;6.20;99.90;;;;;;5034280;28;20178;-70
2022/01/30 05:58:49;;;;;;;0.37;0.37;;;6.50;99.90;;;;;;5034031;28;20254;-70
2022/01/30 06:01:15;;;;;;;0.37;0.37;;;6.40;99.90;;;;;;5034240;28;20261;-70
2022/01/30 06:03:41;;;;;;;0.40;0.40;;;6.20;99.90;;;;;;5034306;28;20433;-70
2022/01/30 06:06:08;;;;;;;0.33;0.33;;;5.30;99.90;;;;;;5034183;28;20177;-70
2022/01/30 06:08:44;;;;;;;0.40;0.40;;;5.30;99.90;;;;;;5033908;28;20171;-69
2022/01/30 06:11:11;;;;;;;0.30;0.30;;;5.10;99.90;;;;;;5034116;28;20554;-70
2022/01/30 06:13:37;;;;;;;0.40;0.40;;;5.20;99.90;;;;;;5034053;28;20194;-70
2022/01/30 06:16:03;;;;;;;0.40;0.40;;;5.90;99.90;;;;;;5034026;28;20242;-70
2022/01/30 06:18:29;;;;;;;0.40;0.40;;;5.30;99.90;;;;;;5033720;28;20313;-70
2022/01/30 06:20:55;;;;;;;0.30;0.30;;;6.30;99.90;;;;;;5034017;28;20211;-70
2022/01/30 06:23:26;;;;;;;0.40;0.40;;;5.40;99.90;;;;;;5033955;28;20210;-70
2022/01/30 06:25:55;;;;;;;0.30;0.30;;;5.40;99.90;;;;;;5033920;28;20413;-70
2022/01/30 06:28:20;;;;;;;0.38;0.38;;;6.40;99.90;;;;;;5033808;28;20574;-70
2022/01/30 06:30:46;;;;;;;0.40;0.40;;;5.30;99.90;;;;;;5033810;28;20258;-70
2022/01/30 06:33:12;;;;;;;0.40;0.40;;;5.30;99.90;;;;;;5033627;28;20222;-70
2022/01/30 06:35:37;;;;;;;0.33;0.33;;;5.40;99.90;;;;;;5033638;28;20179;-70
2022/01/30 06:38:03;;;;;;;0.30;0.30;;;5.40;99.90;;;;;;5033531;28;20220;-70
2022/01/30 06:40:28;;;;;;;0.30;0.30;;;5.50;99.90;;;;;;5033486;28;20632;-70
2022/01/30 06:42:54;;;;;;;0.30;0.30;;;5.50;99.90;;;;;;5033617;28;20578;-70
2022/01/30 06:45:20;;;;;;;0.30;0.30;;;5.50;99.70;;;;;;5033790;28;20254;-70
2022/01/30 06:47:47;;;;;;;0.35;0.35;;;5.40;99.90;;;;;;5033569;28;20217;-70
2022/01/30 06:50:14;;;;;;;0.30;0.30;;;5.40;99.90;;;;;;5033275;28;20217;-70
2022/01/30 06:52:40;;;;;;;0.30;0.30;;;5.30;99.90;;;;;;5033444;28;20178;-70
2022/01/30 06:55:07;;;;;;;0.30;0.30;;;5.20;99.90;;;;;;5033664;28;20636;-70
2022/01/30 06:57:33;;;;;;;0.30;0.30;;;5.30;99.90;;;;;;5033432;28;20171;-69
2022/01/30 06:59:59;;;;;;;0.30;0.30;;;5.40;99.90;;;;;;5033257;28;20293;-70
2022/01/30 07:02:25;;;;;;;0.40;0.40;;;5.50;99.90;;;;;;5033480;28;20257;-70
2022/01/30 07:04:51;;;;;;;0.30;0.30;;;5.50;99.90;;;;;;5033123;28;20430;-69
2022/01/30 07:07:17;;;;;;;0.30;0.30;;;5.60;99.90;;;;;;5033322;28;20405;-70
2022/01/30 07:09:43;;;;;;;0.30;0.30;;;5.70;99.90;;;;;;5033231;28;20416;-70
2022/01/30 07:12:09;;;;;;;0.30;0.30;;;5.70;99.90;;;;;;5033244;28;20175;-69
2022/01/30 07:14:35;;;;;;;0.30;0.30;;;5.70;99.90;;;;;;5033060;28;20296;-70
2022/01/30 07:17:01;;;;;;;0.40;0.40;;;5.70;99.90;;;;;;5033221;28;20213;-70
2022/01/30 07:19:26;;;;;;;0.40;0.40;;;5.60;99.90;;;;;;5031828;28;20167;-69
2022/01/30 07:21:52;;;;;;;0.30;0.30;;;5.60;99.90;;;;;;5033116;28;20171;-70
2022/01/30 07:24:18;;;;;;;0.33;0.33;;;5.60;99.90;;;;;;5032492;28;20187;-69
2022/01/30 07:26:44;;;;;;;0.30;0.30;;;5.70;99.90;;;;;;5033034;28;20405;-69
2022/01/30 07:29:10;;;;;;;0.30;0.30;;;5.80;99.90;;;;;;5032928;28;20241;-70
2022/01/30 07:31:35;;;;;;;0.33;0.33;;;5.80;99.90;;;;;;5033020;28;20171;-69
2022/01/30 07:34:01;;;;;;;0.30;0.30;;;5.80;99.90;;;;;;5031726;28;20293;-69
2022/01/30 07:36:28;;;;;;;0.40;0.40;;;5.90;99.90;;;;;;5033010;28;20213;-69
2022/01/30 07:38:54;;;;;;;0.32;0.32;;;5.90;99.50;;;;;;5032823;28;20202;-70
2022/01/30 07:41:21;;;;;;;0.30;0.30;;;5.90;99.50;;;;;;5031949;28;20170;-70
2022/01/30 07:43:47;;;;;;;0.30;0.30;;;5.90;99.90;;;;;;5033275;28;20200;-71
2022/01/30 07:46:13;;;;;;;0.30;0.30;;;6.60;99.90;;;;;;5032181;28;20651;-73
2022/01/30 07:48:38;;;;;;;0.40;0.40;;;7.30;99.90;;;;;;5033282;28;20252;-70
2022/01/30 07:51:05;;;;;;;0.30;0.30;;;8.20;99.50;;;;;;5033045;28;20628;-71
2022/01/30 07:53:31;;;;;;;0.30;0.30;;;9.00;97.00;;;;;;5032080;28;20191;-71
2022/01/30 07:55:57;;;;;;;0.30;0.30;;;9.80;95.60;;;;;;5031944;28;20182;-72
2022/01/30 07:58:23;;;;;;;0.30;0.30;;;10.50;93.40;;;;;;5033104;28;20925;-72
2022/01/30 08:00:49;;;;;;;0.30;0.30;;;11.10;92.20;;;;;;5032948;28;20171;-73
2022/01/30 08:03:15;;;;;;;0.38;0.38;;;11.30;87.70;;;;;;5031151;28;20692;-70
2022/01/30 08:05:40;;;;;;;0.40;0.40;;;10.60;86.60;;;;;;5034970;28;20199;-69
2022/01/30 08:08:06;;;;;;;0.30;0.30;;;9.90;90.20;;;;;;5036510;28;20175;-69
2022/01/30 08:10:33;;;;;;;0.30;0.30;;;9.40;91.30;;;;;;5036412;28;20182;-68
2022/01/30 08:12:59;;;;;;;0.30;0.30;;;9.10;91.90;;;;;;5036497;28;20197;-75
2022/01/30 08:15:24;;;;;;;0.30;0.30;;;8.70;92.60;;;;;;5036097;28;20208;-69
2022/01/30 08:17:50;;;;;;;0.40;0.40;;;8.40;93.20;;;;;;5034016;28;20166;-70
2022/01/30 08:20:16;;;;;;;0.40;0.40;;;8.20;93.70;;;;;;5036034;28;20632;-70
2022/01/30 08:22:50;;;;;;;0.30;0.30;;;8.10;94.20;;;;;;5035946;28;20195;-70
2022/01/30 08:25:18;;;;;;;0.30;0.30;;;7.90;94.60;;;;;;5035656;28;20518;-71
2022/01/30 08:27:44;;;;;;;0.40;0.40;;;7.80;94.80;;;;;;5035188;28;20183;-69
2022/01/30 08:30:10;;;;;;;0.33;0.33;;;7.60;95.80;;;;;;5035756;28;20602;-71
2022/01/30 08:32:43;;;;;;;0.30;0.30;;;7.70;96.20;;;;;;5035909;28;20169;-74
2022/01/30 08:35:13;;;;;;;0.30;0.30;;;7.60;96.30;;;;;;5041066;28;20199;-73
2022/01/30 08:37:41;;;;;;;0.30;0.30;;;7.80;96.40;;;;;;5035620;28;20220;-69
2022/01/30 08:40:10;;;;;;;0.40;0.40;;;8.00;96.20;;;;;;5035647;28;20197;-76
2022/01/30 08:42:36;;;;;;;0.30;0.30;;;8.10;95.90;;;;;;5036005;28;20787;-69
2022/01/30 08:45:03;;;;;;;0.40;0.40;;;8.20;95.30;;;;;;5036304;28;20265;-69
2022/01/30 08:47:29;;;;;;;0.30;0.30;;;8.20;95.20;;;;;;5035831;28;20523;-69
2022/01/30 08:49:55;;;;;;;0.30;0.30;;;8.20;95.40;;;;;;5035586;28;20181;-73
2022/01/30 08:52:20;;;;;;;0.30;0.30;;;7.80;95.70;;;;;;5035879;28;20179;-69
2022/01/30 08:55:01;;;;;;;0.40;0.40;;;7.90;96.20;;;;;;5035886;28;20205;-70
2022/01/30 08:57:27;;;;;;;0.30;0.30;;;7.80;96.40;;;;;;5035905;28;20219;-80
2022/01/30 08:59:54;;;;;;;0.30;0.30;;;7.80;96.50;;;;;;5035231;28;20197;-78
2022/01/30 09:02:19;;;;;;;0.30;0.30;;;8.00;96.30;;;;;;5035077;28;20161;-70
2022/01/30 09:04:45;;;;;;;0.30;0.30;;;8.00;96.20;;;;;;5043729;28;20252;-70
2022/01/30 09:07:11;;;;;;;0.30;0.30;;;8.20;96.50;;;;;;5044154;28;20236;-69
2022/01/30 09:09:36;;;;;;;0.30;0.30;;;8.40;96.10;;;;;;5043081;28;20203;-70
2022/01/30 09:12:05;;;;;;;0.30;0.30;;;8.40;95.60;;;;;;5044129;28;20692;-69
2022/01/30 09:14:32;;;;;;;0.30;0.30;;;8.20;95.90;;;;;;5042860;28;20232;-70
2022/01/30 09:16:57;;;;;;;0.30;0.30;;;8.00;96.40;;;;;;5041849;28;20538;-70
2022/01/30 09:19:23;;;;;;;0.40;0.40;;;7.90;96.60;;;;;;5042560;28;20172;-70
2022/01/30 09:21:51;;;;;;;0.30;0.30;;;8.10;96.40;;;;;;5042919;28;20175;-69
2022/01/30 09:24:16;;;;;;;0.30;0.30;;;7.90;96.50;;;;;;5036923;28;20192;-70
2022/01/30 09:26:43;;;;;;;0.30;0.30;;;7.90;96.50;;;;;;5034756;28;20700;-70
2022/01/30 09:29:08;;;;;;;0.30;0.30;;;7.90;96.40;;;;;;5034626;28;20191;-70
2022/01/30 09:31:34;;;;;;;0.30;0.30;;;8.10;96.50;;;;;;5033514;28;20196;-70
2022/01/30 09:34:00;;;;;;;0.40;0.40;;;8.10;96.50;;;;;;5034380;28;20687;-70
2022/01/30 09:36:26;;;;;;;0.30;0.30;;;8.20;96.60;;;;;;5033661;28;20403;-70
2022/01/30 09:38:52;;;;;;;0.30;0.30;;;8.30;96.40;;;;;;5034409;28;20604;-70
2022/01/30 09:41:20;;;;;;;0.30;0.30;;;8.50;96.40;;;;;;5033587;28;20204;-70
2022/01/30 09:43:46;;;;;;;0.30;0.30;;;8.60;95.80;;;;;;5034590;28;20197;-69
2022/01/30 09:46:12;;;;;;;0.30;0.30;;;8.50;95.80;;;;;;5034732;28;20217;-69
2022/01/30 09:48:38;;;;;;;0.30;0.30;;;8.30;95.60;;;;;;5033455;28;20585;-68
2022/01/30 09:51:09;;;;;;;0.30;0.30;;;8.30;96.30;;;;;;5034861;28;20488;-70
2022/01/30 09:53:35;;;;;;;0.30;0.30;;;8.30;96.30;;;;;;5033418;28;20213;-71
2022/01/30 09:56:03;;;;;;;0.30;0.30;;;8.40;96.30;;;;;;5034757;28;20181;-72
2022/01/30 09:58:30;;;;;;;0.40;0.40;;;8.10;96.40;;;;;;5034266;28;20176;-69
2022/01/30 10:00:57;;;;;;;0.30;0.30;;;7.70;97.00;;;;;;5034397;28;20616;-74
2022/01/30 10:03:26;;;;;;;0.40;0.40;;;7.50;97.30;;;;;;5034627;28;20206;-70
2022/01/30 10:06:13;;;;;;;0.30;0.30;;;7.40;98.00;;;;;;5034711;28;20174;-70
2022/01/30 10:08:46;;;;;;;0.30;0.30;;;7.00;98.40;;;;;;5032630;28;20181;-69
2022/01/30 10:11:31;;;;;;;0.40;0.40;;;6.80;99.10;;;;;;5031770;28;20742;-69
2022/01/30 10:14:03;;;;;;;0.40;0.40;;;6.90;99.60;;;;;;5033477;28;20556;-69
2022/01/30 10:16:33;;;;;;;0.30;0.30;;;6.80;99.50;;;;;;5033303;28;20167;-69
2022/01/30 10:19:08;;;;;;;0.30;0.30;;;6.90;99.90;;;;;;5033902;28;20179;-69
2022/01/30 10:21:34;;;;;;;0.40;0.40;;;6.90;99.90;;;;;;5033968;28;20174;-69
2022/01/30 10:23:59;;;;;;;0.30;0.30;;;7.00;99.70;;;;;;5033435;28;20663;-68
2022/01/30 10:26:32;;;;;;;0.30;0.30;;;7.30;99.40;;;;;;5033991;28;20228;-67
2022/01/30 10:29:21;;;;;;;0.40;0.40;;;7.50;98.70;;;;;;5033634;28;20259;-69
2022/01/30 10:32:05;;;;;;;0.30;0.30;;;7.30;98.50;;;;;;5033868;28;20204;-68
2022/01/30 10:34:33;;;;;;;0.30;0.30;;;7.60;98.40;;;;;;5032476;28;20217;-69
2022/01/30 10:37:23;;;;;;;0.35;0.35;;;7.70;97.90;;;;;;5033705;28;20236;-69
2022/01/30 10:40:24;;;;;;;0.30;0.30;;;7.90;97.80;;;;;;5033622;28;20639;-69
2022/01/30 10:42:51;;;;;;;0.38;0.38;;;8.30;98.30;;;;;;5025302;28;20177;-69
2022/01/30 10:45:30;;;;;;;0.40;0.40;;;8.20;97.00;;;;;;5033535;28;20537;-68
2022/01/30 10:48:13;;;;;;;0.40;0.40;;;8.30;96.30;;;;;;5033540;28;20200;-69
2022/01/30 10:50:45;;;;;;;0.30;0.30;;;8.60;96.30;;;;;;5033563;28;20169;-69
2022/01/30 10:53:39;;;;;;;0.50;0.50;;;9.20;95.40;;;;;;5033196;28;20209;-69
2022/01/30 10:56:18;;;;;;;0.30;0.30;;;9.70;93.80;;;;;;5033001;28;20186;-67
2022/01/30 10:59:13;;;;;;;0.30;0.30;;;9.80;92.80;;;;;;5033338;28;20174;-67
2022/01/30 11:01:41;;;;;;;0.30;0.30;;;10.10;92.70;;;;;;5033085;28;20174;-68
2022/01/30 11:04:19;;;;;;;0.30;0.30;;;10.30;91.60;;;;;;5032081;28;20217;-68
2022/01/30 11:06:47;;;;;;;0.30;0.30;;;10.30;91.20;;;;;;5033413;28;20171;-68
2022/01/30 11:09:18;;;;;;;0.35;0.35;;;10.50;91.20;;;;;;5032318;28;20519;-69
2022/01/30 11:11:50;;;;;;;0.30;0.30;;;10.00;91.60;;;;;;5033341;28;20182;-69
2022/01/30 11:14:19;;;;;;;0.30;0.30;;;10.50;89.70;;;;;;5033105;28;20260;-69
2022/01/30 11:17:02;;;;;;;0.30;0.30;;;10.30;90.00;;;;;;5032013;28;20185;-69
2022/01/30 11:19:29;;;;;;;0.30;0.30;;;10.30;90.60;;;;;;5031558;28;20163;-69
2022/01/30 11:22:10;;;;;;;0.30;0.30;;;10.50;90.50;;;;;;5032746;28;20257;-69
2022/01/30 11:25:01;;;;;;;0.30;0.30;;;10.60;90.20;;;;;;5032851;28;20195;-69
2022/01/30 11:27:26;;;;;;;0.30;0.30;;;10.70;89.70;;;;;;5033056;28;20224;-69
2022/01/30 11:29:52;;;;;;;0.30;0.30;;;10.80;89.20;;;;;;5032841;28;20178;-69
2022/01/30 11:32:21;;;;;;;9.48;2.35;;;10.70;89.40;;;;;;5033101;28;20167;-68
2022/01/30 11:34:47;;;;;;;0.30;0.30;;;10.50;89.00;;;;;;5032693;28;20301;-69
2022/01/30 11:37:17;;;;;;;0.30;0.30;;;9.90;99.90;;;;;;5033153;28;20194;-69
2022/01/30 11:39:52;;;;;;;0.30;0.30;;;10.00;90.20;;;;;;5034128;28;20202;-69
2022/01/30 11:42:26;;;;;;;0.30;0.30;;;9.90;91.50;;;;;;5036969;28;20177;-68
2022/01/30 11:45:03;;;;;;;0.30;0.30;;;9.80;91.40;;;;;;5036737;28;20198;-69
2022/01/30 11:47:42;;;;;;;0.30;0.30;;;10.00;90.50;;;;;;5035553;28;20261;-69
2022/01/30 11:50:08;;;;;;;0.30;0.30;;;10.50;90.10;;;;;;5036663;28;20301;-69
2022/01/30 11:53:15;;;;;;;0.30;0.30;;;10.60;89.60;;;;;;5036834;28;20285;-69
2022/01/30 11:55:48;;;;;;;0.30;0.30;;;10.70;90.00;;;;;;5033811;28;20653;-69
2022/01/30 11:58:40;;;;;;;0.30;0.30;;;10.60;87.60;;;;;;5036625;28;20175;-69
2022/01/30 12:01:35;;;;;;;0.30;0.30;;;10.70;88.30;;;;;;5036456;28;20217;-69
2022/01/30 12:04:03;;;;;;;0.30;0.30;;;10.70;88.90;;;;;;5036471;28;20191;-69
2022/01/30 12:06:30;;;;;;;0.30;0.30;;;10.60;89.10;;;;;;5036641;28;20250;-69
2022/01/30 12:08:59;;;;;;;0.30;0.30;;;10.50;88.40;;;;;;5036124;28;20194;-69
2022/01/30 12:11:37;;;;;;;0.30;0.30;;;10.40;87.50;;;;;;5036466;28;20198;-69
2022/01/30 12:14:07;;;;;;;0.30;0.30;;;10.40;88.80;;;;;;5036095;28;20245;-69
2022/01/30 12:16:45;;;;;;;0.30;0.30;;;10.40;88.60;;;;;;5036311;28;20175;-69
2022/01/30 12:19:13;;;;;;;0.30;0.30;;;10.20;89.10;;;;;;5035980;28;20293;-69
2022/01/30 12:21:40;;;;;;;0.30;0.30;;;10.10;90.00;;;;;;5036194;28;20187;-69
2022/01/30 12:24:20;;;;;;;0.30;0.30;;;10.00;90.10;;;;;;5036120;28;20191;-69
2022/01/30 12:26:54;;;;;;;0.30;0.30;;;10.00;90.50;;;;;;5036146;28;20175;-69
2022/01/30 12:29:40;;;;;;;0.30;0.30;;;10.00;90.60;;;;;;5035974;28;20258;-69
2022/01/30 12:32:24;;;;;;;0.40;0.40;;;10.00;90.40;;;;;;5035885;28;20656;-69
2022/01/30 12:34:55;;;;;;;0.30;0.30;;;10.20;90.00;;;;;;5035608;28;20214;-69
2022/01/30 12:37:31;;;;;;;0.30;0.30;;;10.10;89.60;;;;;;5035915;28;20170;-69
2022/01/30 12:40:14;;;;;;;0.30;0.30;;;10.10;90.30;;;;;;5035792;28;20580;-69
2022/01/30 12:42:40;;;;;;;0.30;0.30;;;10.10;90.40;;;;;;5035856;28;20538;-69
2022/01/30 12:45:08;;;;;;;0.30;0.30;;;10.10;89.60;;;;;;5035864;28;20198;-69
2022/01/30 12:47:57;;;;;;;0.30;0.30;;;10.00;90.00;;;;;;5035699;28;20193;-69
2022/01/30 12:50:28;;;;;;;0.30;0.30;;;10.00;90.70;;;;;;5035378;28;20181;-68
2022/01/30 12:52:54;;;;;;;0.35;0.35;;;10.10;89.70;;;;;;5035525;28;20190;-69
2022/01/30 12:55:20;;;;;;;0.30;0.30;;;10.20;90.00;;;;;;5035394;28;20687;-68
2022/01/30 12:57:47;;;;;;;0.30;0.30;;;10.40;89.00;;;;;;5035532;28;20240;-69
2022/01/30 13:00:16;;;;;;;0.30;0.30;;;10.50;88.30;;;;;;5035293;28;20592;-69
2022/01/30 13:02:59;;;;;;;2.30;1.50;;;10.70;86.20;;;;;;5035486;28;20186;-68
2022/01/30 13:05:26;;;;;;;0.30;0.30;;;10.80;85.00;;;;;;5035196;28;20181;-69
2022/01/30 13:07:54;;;;;;;0.38;0.38;;;10.90;84.60;;;;;;5035390;28;20171;-69
2022/01/30 13:10:21;;;;;;;0.30;0.30;;;10.80;84.00;;;;;;5035117;28;20530;-69
2022/01/30 13:12:47;;;;;;;0.30;0.30;;;10.70;84.10;;;;;;5035163;28;20178;-69
2022/01/30 13:15:16;;;;;;;0.30;0.30;;;10.60;84.10;;;;;;5035094;28;20290;-69
2022/01/30 13:17:42;;;;;;;0.30;0.30;;;10.50;83.70;;;;;;5035239;28;20224;-69
2022/01/30 13:20:10;;;;;;;0.30;0.30;;;10.50;83.20;;;;;;5034743;28;20193;-69
2022/01/30 13:22:38;;;;;;;0.30;0.30;;;10.50;83.60;;;;;;5035108;28;20632;-68
2022/01/30 13:25:13;;;;;;;0.30;0.30;;;10.40;82.80;;;;;;5034898;28;20171;-69
2022/01/30 13:27:41;;;;;;;0.30;0.30;;;10.40;84.20;;;;;;5035132;28;20177;-69
2022/01/30 13:30:07;;;;;;;0.30;0.30;;;10.20;86.60;;;;;;5034645;28;20178;-69
2022/01/30 13:32:37;;;;;;;3.22;1.50;;;10.10;85.10;;;;;;5034898;28;20175;-69
2022/01/30 13:35:13;;;;;;;0.30;0.30;;;10.10;84.30;;;;;;5034549;28;20305;-69
2022/01/30 13:37:39;;;;;;;0.30;0.30;;;10.10;85.00;;;;;;5034914;28;20163;-69
2022/01/30 13:40:26;;;;;;;0.30;0.30;;;10.10;85.30;;;;;;5034542;28;20671;-68
2022/01/30 13:48:03;;;;;;;0.38;0.38;;;9.70;85.90;;;;;;5034759;28;20667;-69
2022/01/30 13:50:43;;;;;;;0.32;0.32;;;9.60;87.90;;;;;;5034394;28;20257;-69
2022/01/30 13:53:17;;;;;;;0.30;0.30;;;9.10;87.50;;;;;;5034495;28;20686;-69
2022/01/30 13:56:00;;;;;;;0.30;0.30;;;9.10;87.70;;;;;;5034174;28;20210;-69
2022/01/30 13:58:43;;;;;;;0.30;0.30;;;9.10;90.30;;;;;;5034135;28;20197;-69
2022/01/30 14:01:24;;;;;;;0.40;0.40;;;9.10;90.10;;;;;;5034464;28;20504;-69
2022/01/30 14:04:02;;;;;;;0.30;0.30;;;9.00;90.30;;;;;;5033890;28;20197;-69
2022/01/30 14:06:32;;;;;;;0.30;0.30;;;8.90;90.60;;;;;;5032944;28;20679;-68
2022/01/30 14:09:12;;;;;;;0.30;0.30;;;8.30;90.60;;;;;;5033995;28;20257;-68